createdAt,value
2019-06-20T00:01:49.920Z,6.03
2019-06-20T00:04:53.650Z,5.80
2019-06-20T00:07:57.894Z,7.10
2019-06-20T00:11:01.587Z,6.83
2019-06-20T00:14:05.707Z,5.73
2019-06-20T00:17:09.411Z,5.23
2019-06-20T00:20:13.373Z,7.53
2019-06-20T00:23:17.045Z,5.80
2019-06-20T00:26:20.983Z,7.07
2019-06-20T00:29:24.744Z,6.47
2019-06-20T00:32:28.446Z,4.00
2019-06-20T00:35:32.152Z,5.03
2019-06-20T00:38:36.167Z,7.50
2019-06-20T00:41:40.263Z,6.37
2019-06-20T00:44:43.971Z,6.50
2019-06-20T00:47:47.952Z,8.37
2019-06-20T00:50:51.685Z,8.13
2019-06-20T00:53:55.665Z,6.27
2019-06-20T00:56:59.415Z,6.00
2019-06-20T01:00:03.162Z,8.20
2019-06-20T01:03:06.932Z,7.03
2019-06-20T01:06:10.965Z,7.07
2019-06-20T01:09:14.985Z,7.77
2019-06-20T01:12:18.694Z,8.33
2019-06-20T01:15:22.896Z,5.63
2019-06-20T01:18:26.602Z,8.63
2019-06-20T01:21:30.389Z,7.70
2019-06-20T01:24:34.077Z,7.23
2019-06-20T01:27:38.449Z,6.97
2019-06-20T01:30:42.595Z,6.50
2019-06-20T01:33:46.284Z,5.23
2019-06-20T01:36:49.991Z,6.10
2019-06-20T01:39:53.687Z,6.73
2019-06-20T01:42:57.400Z,6.10
2019-06-20T01:46:01.122Z,5.53
2019-06-20T01:49:04.814Z,5.10
2019-06-20T01:52:08.742Z,5.50
2019-06-20T01:55:12.922Z,6.87
2019-06-20T01:58:16.860Z,6.20
2019-06-20T02:01:20.628Z,5.17
2019-06-20T02:04:24.561Z,5.57
2019-06-20T02:07:28.470Z,6.60
2019-06-20T02:10:32.483Z,6.47
2019-06-20T02:13:36.440Z,6.10
2019-06-20T02:16:40.228Z,6.03
2019-06-20T02:19:44.080Z,7.43
2019-06-20T02:22:47.783Z,7.33
2019-06-20T02:25:52.065Z,4.60
2019-06-20T02:28:55.831Z,6.80
2019-06-20T02:31:59.549Z,7.80
2019-06-20T02:35:03.249Z,6.00
2019-06-20T02:38:07.103Z,5.90
2019-06-20T02:41:10.860Z,5.40
2019-06-20T02:44:29.362Z,5.77
2019-06-20T02:47:19.988Z,6.47
2019-06-20T02:50:23.944Z,6.60
2019-06-20T02:53:27.706Z,5.47
2019-06-20T02:56:31.480Z,7.93
2019-06-20T02:59:35.554Z,7.30
2019-06-20T03:02:39.532Z,9.60
2019-06-20T03:05:58.659Z,7.63
2019-06-20T03:09:02.373Z,6.37
2019-06-20T03:12:06.071Z,6.37
2019-06-20T03:15:09.866Z,7.40
2019-06-20T03:18:13.566Z,7.50
2019-06-20T03:21:17.329Z,5.30
2019-06-20T03:24:21.292Z,6.97
2019-06-20T03:27:24.991Z,4.70
2019-06-20T03:30:28.934Z,6.83
2019-06-20T03:33:32.687Z,7.67
2019-06-20T03:36:36.382Z,6.67
2019-06-20T03:39:40.080Z,6.10
2019-06-20T03:42:43.849Z,6.27
2019-06-20T03:45:47.986Z,5.53
2019-06-20T03:48:52.436Z,6.13
2019-06-20T03:51:56.211Z,5.50
2019-06-20T03:54:59.920Z,5.83
2019-06-20T03:58:04.264Z,5.80
2019-06-20T04:01:08.235Z,6.37
2019-06-20T04:04:12.369Z,6.70
2019-06-20T04:07:16.140Z,6.23
2019-06-20T04:10:19.918Z,6.43
2019-06-20T04:13:23.972Z,4.47
2019-06-20T04:16:27.748Z,5.60
2019-06-20T04:19:31.437Z,5.17
2019-06-20T04:22:35.881Z,5.63
2019-06-20T04:25:39.573Z,5.33
2019-06-20T04:28:43.262Z,6.10
2019-06-20T04:31:46.961Z,4.63
2019-06-20T04:34:50.769Z,5.30
2019-06-20T04:37:54.461Z,5.17
2019-06-20T04:40:58.154Z,6.53
2019-06-20T04:44:01.905Z,5.27
2019-06-20T04:47:10.098Z,6.57
2019-06-20T04:50:13.890Z,5.67
2019-06-20T04:53:17.719Z,7.93
2019-06-20T04:56:21.736Z,7.63
2019-06-20T04:59:25.906Z,6.63
2019-06-20T05:02:36.109Z,7.17
2019-06-20T05:05:39.839Z,7.60
2019-06-20T05:08:43.863Z,7.23
2019-06-20T05:11:47.620Z,8.27
2019-06-20T05:14:51.322Z,7.40
2019-06-20T05:17:55.037Z,7.97
2019-06-20T05:20:58.727Z,8.33
2019-06-20T05:24:02.428Z,7.17
2019-06-20T05:27:06.139Z,7.97
2019-06-20T05:30:11.241Z,7.90
2019-06-20T05:33:14.946Z,9.70
2019-06-20T05:36:18.921Z,8.87
2019-06-20T05:39:22.927Z,8.60
2019-06-20T05:42:26.643Z,11.17
2019-06-20T05:45:31.149Z,11.57
2019-06-20T05:48:35.165Z,10.63
2019-06-20T05:51:39.803Z,11.80
2019-06-20T05:54:44.222Z,12.23
2019-06-20T05:57:47.986Z,12.13
2019-06-20T06:00:51.683Z,11.67
2019-06-20T06:03:55.387Z,13.83
2019-06-20T06:06:59.375Z,16.50
2019-06-20T06:10:04.473Z,13.53
2019-06-20T06:13:08.806Z,13.37
2019-06-20T06:16:25.652Z,13.60
2019-06-20T06:19:18.603Z,14.00
2019-06-20T06:22:22.379Z,13.40
2019-06-20T06:25:26.668Z,11.07
2019-06-20T06:28:30.358Z,13.07
2019-06-20T06:31:34.058Z,13.67
2019-06-20T06:34:38.062Z,12.67
2019-06-20T06:37:41.792Z,11.53
2019-06-20T06:40:45.593Z,11.50
2019-06-20T06:43:49.379Z,11.27
2019-06-20T06:46:57.516Z,13.10
2019-06-20T06:49:58.742Z,11.83
2019-06-20T06:53:02.446Z,13.07
2019-06-20T06:56:06.241Z,14.47
2019-06-20T06:59:09.969Z,15.70
2019-06-20T07:02:14.352Z,18.67
2019-06-20T07:05:18.716Z,18.70
2019-06-20T07:08:22.445Z,16.90
2019-06-20T07:11:26.188Z,18.23
2019-06-20T07:14:29.897Z,19.23
2019-06-20T07:17:33.621Z,20.57
2019-06-20T07:20:37.678Z,21.57
2019-06-20T07:23:41.406Z,17.23
2019-06-20T07:26:45.414Z,21.90
2019-06-20T07:29:49.170Z,28.93
2019-06-20T07:32:52.964Z,26.93
2019-06-20T07:35:56.792Z,31.37
2019-06-20T07:39:01.146Z,34.93
2019-06-20T07:42:04.921Z,32.90
2019-06-20T07:45:09.808Z,33.47
2019-06-20T07:48:13.499Z,32.07
2019-06-20T07:51:17.208Z,32.27
2019-06-20T07:54:20.957Z,31.17
2019-06-20T07:57:25.160Z,31.53
2019-06-20T08:00:29.127Z,32.53
2019-06-20T08:03:32.827Z,32.00
2019-06-20T08:06:36.545Z,31.93
2019-06-20T08:09:44.864Z,32.70
2019-06-20T08:12:45.930Z,29.70
2019-06-20T08:15:49.983Z,31.60
2019-06-20T08:18:54.330Z,29.93
2019-06-20T08:21:58.367Z,28.20
2019-06-20T08:25:03.231Z,26.80
2019-06-20T08:28:07.206Z,26.70
2019-06-20T08:31:11.331Z,21.37
2019-06-20T08:34:15.385Z,22.07
2019-06-20T08:37:19.101Z,23.07
2019-06-20T08:40:25.708Z,20.87
2019-06-20T08:43:29.435Z,21.63
2019-06-20T08:46:33.139Z,21.47
2019-06-20T08:49:37.124Z,21.57
2019-06-20T08:52:41.132Z,19.47
2019-06-20T08:55:45.084Z,21.43
2019-06-20T08:58:48.786Z,20.30
2019-06-20T09:01:55.992Z,20.53
2019-06-20T09:04:58.273Z,20.33
2019-06-20T09:11:06.521Z,20.13
2019-06-20T09:14:10.522Z,22.60
2019-06-20T09:17:14.200Z,20.70
2019-06-20T09:20:19.678Z,21.77
2019-06-20T09:23:23.405Z,21.33
2019-06-20T09:26:27.124Z,24.43
2019-06-20T09:29:41.395Z,25.30
2019-06-20T09:32:37.055Z,23.00
2019-06-20T09:35:40.761Z,23.93
2019-06-20T09:38:44.731Z,21.77
2019-06-20T09:41:48.420Z,24.70
2019-06-20T09:44:52.637Z,24.63
2019-06-20T09:47:56.403Z,25.37
2019-06-20T09:51:00.353Z,21.40
2019-06-20T09:54:04.123Z,22.47
2019-06-20T09:57:08.068Z,20.33
2019-06-20T10:00:11.269Z,23.77
2019-06-20T10:03:15.442Z,22.23
2019-06-20T10:06:19.143Z,21.87
2019-06-20T10:09:22.851Z,21.00
2019-06-20T10:12:26.961Z,23.93
2019-06-20T10:15:33.300Z,20.70
2019-06-20T10:18:37.064Z,24.27
2019-06-20T10:21:40.872Z,21.50
2019-06-20T10:24:45.788Z,25.53
2019-06-20T10:27:51.420Z,24.93
2019-06-20T10:30:55.502Z,25.03
2019-06-20T10:33:59.213Z,22.47
2019-06-20T10:37:03.281Z,26.77
2019-06-20T10:40:08.734Z,23.33
2019-06-20T10:43:12.430Z,19.73
2019-06-20T10:46:16.137Z,18.93
2019-06-20T10:49:19.847Z,17.17
2019-06-20T10:52:23.546Z,15.30
2019-06-20T10:55:27.521Z,16.00
2019-06-20T10:58:31.546Z,15.43
2019-06-20T11:01:35.611Z,14.37
2019-06-20T11:04:40.696Z,13.93
2019-06-20T11:07:45.598Z,13.40
2019-06-20T11:10:49.442Z,14.83
2019-06-20T11:13:53.689Z,15.67
2019-06-20T11:16:58.759Z,14.43
2019-06-20T11:20:03.095Z,11.83
2019-06-20T11:23:06.922Z,14.00
2019-06-20T11:26:10.676Z,12.93
2019-06-20T11:29:14.416Z,11.43
2019-06-20T11:32:18.373Z,11.00
2019-06-20T11:35:22.341Z,9.37
2019-06-20T11:38:26.376Z,9.60
2019-06-20T11:41:30.194Z,9.50
2019-06-20T11:44:35.321Z,8.77
2019-06-20T11:47:40.412Z,8.30
2019-06-20T11:50:44.900Z,9.00
2019-06-20T11:53:48.856Z,8.60
2019-06-20T11:56:52.569Z,7.93
2019-06-20T11:59:56.648Z,6.53
2019-06-20T12:03:00.400Z,6.43
2019-06-20T12:06:04.387Z,6.40
2019-06-20T12:09:08.402Z,5.73
2019-06-20T12:12:12.749Z,5.07
2019-06-20T12:15:17.417Z,5.90
2019-06-20T12:18:21.558Z,6.03
2019-06-20T12:21:25.758Z,6.17
2019-06-20T12:24:29.777Z,5.93
2019-06-20T12:27:34.296Z,5.13
2019-06-20T12:30:38.408Z,5.83
2019-06-20T12:33:45.046Z,7.17
2019-06-20T12:36:48.840Z,6.50
2019-06-20T12:39:52.561Z,6.70
2019-06-20T12:42:56.237Z,7.80
2019-06-20T12:46:00.308Z,6.27
2019-06-20T12:49:04.442Z,6.97
2019-06-20T12:52:08.471Z,6.60
2019-06-20T12:55:12.993Z,6.50
2019-06-20T12:58:16.750Z,6.60
2019-06-20T13:01:34.854Z,6.23
2019-06-20T13:04:25.987Z,6.03
2019-06-20T13:07:29.696Z,5.40
2019-06-20T13:10:33.698Z,5.57
2019-06-20T13:13:38.827Z,6.57
2019-06-20T13:16:42.976Z,6.47
2019-06-20T13:19:46.672Z,7.40
2019-06-20T13:22:50.390Z,6.37
2019-06-20T13:25:54.584Z,5.47
2019-06-20T13:29:04.019Z,5.80
2019-06-20T13:32:04.653Z,5.20
2019-06-20T13:35:09.200Z,4.23
2019-06-20T13:38:13.275Z,4.53
2019-06-20T13:41:17.043Z,4.50
2019-06-20T13:44:21.808Z,3.87
2019-06-20T13:47:25.640Z,4.23
2019-06-20T13:50:29.391Z,4.63
2019-06-20T13:53:33.101Z,4.00
2019-06-20T13:56:36.807Z,4.00
2019-06-20T13:59:41.659Z,4.00
2019-06-20T14:02:47.039Z,3.93
2019-06-20T14:05:51.673Z,3.90
2019-06-20T14:08:55.430Z,4.43
2019-06-20T14:11:59.109Z,4.87
2019-06-20T14:15:02.809Z,4.08
2019-06-20T14:18:06.575Z,4.03
2019-06-20T14:21:10.283Z,3.80
2019-06-20T14:24:14.040Z,3.83
2019-06-20T14:27:17.734Z,5.07
2019-06-20T14:30:22.186Z,5.03
2019-06-20T14:33:25.877Z,4.83
2019-06-20T14:36:30.182Z,4.80
2019-06-20T14:39:34.355Z,4.30
2019-06-20T14:42:38.486Z,4.47
2019-06-20T14:45:43.828Z,4.97
2019-06-20T14:48:48.490Z,4.73
2019-06-20T14:51:52.487Z,4.30
2019-06-20T14:54:56.596Z,4.70
2019-06-20T14:58:00.406Z,4.37
2019-06-20T15:01:04.233Z,4.70
2019-06-20T15:04:07.934Z,5.47
2019-06-20T15:07:11.698Z,4.87
2019-06-20T15:10:16.076Z,4.93
2019-06-20T15:13:19.805Z,4.90
2019-06-20T15:16:23.585Z,4.13
2019-06-20T15:19:27.285Z,6.20
2019-06-20T15:22:32.103Z,5.60
2019-06-20T15:25:36.253Z,7.00
2019-06-20T15:28:39.942Z,6.87
2019-06-20T15:31:43.936Z,6.10
2019-06-20T15:34:49.341Z,6.63
2019-06-20T15:37:53.929Z,6.97
2019-06-20T15:40:58.998Z,6.40
2019-06-20T15:44:02.998Z,6.37
2019-06-20T15:47:07.018Z,6.53
2019-06-20T15:50:10.953Z,6.30
2019-06-20T15:53:14.824Z,5.60
2019-06-20T15:56:18.553Z,5.90
2019-06-20T15:59:22.625Z,5.73
2019-06-20T16:02:26.373Z,6.40
2019-06-20T16:05:30.112Z,6.40
2019-06-20T16:08:33.850Z,7.43
2019-06-20T16:11:37.557Z,7.67
2019-06-20T16:14:41.295Z,7.47
2019-06-20T16:17:44.999Z,11.03
2019-06-20T16:20:48.979Z,10.50
2019-06-20T16:23:52.695Z,8.23
2019-06-20T16:26:56.429Z,10.37
2019-06-20T16:30:00.126Z,10.77
2019-06-20T16:33:04.039Z,10.37
2019-06-20T16:36:07.756Z,11.20
2019-06-20T16:39:11.449Z,9.90
2019-06-20T16:42:15.183Z,9.63
2019-06-20T16:45:19.155Z,9.10
2019-06-20T16:48:22.877Z,9.80
2019-06-20T16:51:26.579Z,8.67
2019-06-20T16:54:30.675Z,7.43
2019-06-20T16:57:34.396Z,8.20
2019-06-20T17:00:38.548Z,6.93
2019-06-20T17:03:42.317Z,8.20
2019-06-20T17:06:46.333Z,8.37
2019-06-20T17:09:50.027Z,7.87
2019-06-20T17:12:54.005Z,7.80
2019-06-20T17:15:57.946Z,6.80
2019-06-20T17:19:01.642Z,6.30
2019-06-20T17:22:06.084Z,6.60
2019-06-20T17:25:10.232Z,6.37
2019-06-20T17:28:13.933Z,6.17
2019-06-20T17:31:17.872Z,6.37
2019-06-20T17:34:21.568Z,5.63
2019-06-20T17:37:25.267Z,5.30
2019-06-20T17:40:29.204Z,4.50
2019-06-20T17:43:32.898Z,4.90
2019-06-20T17:46:36.959Z,4.20
2019-06-20T17:49:40.885Z,4.40
2019-06-20T17:52:44.696Z,4.43
2019-06-20T17:55:48.704Z,4.00
2019-06-20T17:58:52.410Z,4.27
2019-06-20T18:01:56.117Z,4.50
2019-06-20T18:05:00.105Z,5.13
2019-06-20T18:08:14.822Z,4.97
2019-06-20T18:11:09.900Z,5.10
2019-06-20T18:14:14.299Z,5.10
2019-06-20T18:17:18.360Z,5.57
2019-06-20T18:20:24.510Z,5.47
2019-06-20T18:23:28.511Z,4.90
2019-06-20T18:26:32.211Z,5.20
2019-06-20T18:29:36.024Z,6.00
2019-06-20T18:32:40.048Z,5.20
2019-06-20T18:35:43.878Z,5.10
2019-06-20T18:38:47.871Z,4.97
2019-06-20T18:41:51.590Z,5.70
2019-06-20T18:44:55.291Z,5.80
2019-06-20T18:47:59.018Z,6.40
2019-06-20T18:51:02.710Z,5.03
2019-06-20T18:54:06.412Z,6.03
2019-06-20T18:57:10.117Z,5.67
2019-06-20T19:00:14.388Z,6.20
2019-06-20T19:03:21.331Z,6.53
2019-06-20T19:06:35.508Z,6.70
2019-06-20T19:09:29.732Z,7.03
2019-06-20T19:12:33.732Z,6.63
2019-06-20T19:15:37.407Z,6.87
2019-06-20T19:18:41.273Z,6.10
2019-06-20T19:21:44.978Z,7.00
2019-06-20T19:24:48.669Z,6.53
2019-06-20T19:27:52.618Z,6.80
2019-06-20T19:30:56.388Z,7.00
2019-06-20T19:34:00.095Z,6.87
2019-06-20T19:37:03.799Z,6.30
2019-06-20T19:40:08.288Z,6.60
2019-06-20T19:43:12.084Z,6.50
2019-06-20T19:46:15.843Z,6.97
2019-06-20T19:49:19.556Z,7.80
2019-06-20T19:52:23.566Z,6.93
2019-06-20T19:55:27.625Z,7.43
2019-06-20T19:58:31.494Z,7.57
2019-06-20T20:01:35.626Z,6.10
2019-06-20T20:04:39.860Z,7.00
2019-06-20T20:07:44.176Z,7.43
2019-06-20T20:10:48.641Z,7.07
2019-06-20T20:13:52.334Z,7.17
2019-06-20T20:16:56.066Z,7.50
2019-06-20T20:19:59.775Z,7.33
2019-06-20T20:23:03.539Z,7.17
2019-06-20T20:26:08.805Z,7.40
2019-06-20T20:29:12.671Z,6.90
2019-06-20T20:32:16.890Z,7.60
2019-06-20T20:35:34.493Z,7.33
2019-06-20T20:38:26.490Z,7.17
2019-06-20T20:41:30.567Z,6.53
2019-06-20T20:44:34.278Z,7.63
2019-06-20T20:47:38.065Z,6.50
2019-06-20T20:50:42.392Z,7.07
2019-06-20T20:53:46.174Z,8.00
2019-06-20T20:56:50.143Z,7.60
2019-06-20T20:59:53.873Z,6.60
2019-06-20T21:02:57.669Z,6.60
2019-06-20T21:06:01.659Z,9.47
2019-06-20T21:09:07.756Z,10.73
2019-06-20T21:12:11.727Z,11.87
2019-06-20T21:15:16.055Z,11.20
2019-06-20T21:18:19.987Z,12.83
2019-06-20T21:21:24.273Z,14.20
2019-06-20T21:24:28.007Z,16.03
2019-06-20T21:27:32.226Z,17.73
2019-06-20T21:30:35.936Z,16.33
2019-06-20T21:33:39.630Z,19.60
2019-06-20T21:36:43.604Z,18.50
2019-06-20T21:39:47.371Z,18.40
2019-06-20T21:42:51.093Z,17.80
2019-06-20T21:45:54.795Z,20.57
2019-06-20T21:48:58.491Z,20.10
2019-06-20T21:52:02.190Z,19.50
2019-06-20T21:55:06.270Z,26.13
2019-06-20T21:58:10.039Z,21.97
2019-06-20T22:01:14.615Z,21.17
2019-06-20T22:04:18.324Z,22.30
2019-06-20T22:07:22.046Z,17.43
2019-06-20T22:10:25.818Z,18.53
2019-06-20T22:13:29.526Z,17.47
2019-06-20T22:16:33.243Z,20.80
2019-06-20T22:19:36.930Z,19.80
2019-06-20T22:22:41.738Z,18.93
2019-06-20T22:25:45.574Z,19.20
2019-06-20T22:28:49.622Z,18.67
2019-06-20T22:31:53.339Z,18.10
2019-06-20T22:34:57.372Z,20.10
2019-06-20T22:38:01.159Z,18.67
2019-06-20T22:41:04.943Z,16.60
2019-06-20T22:44:08.650Z,17.50
2019-06-20T22:47:12.374Z,17.97
2019-06-20T22:50:16.798Z,17.37
2019-06-20T22:53:20.507Z,17.73
2019-06-20T22:56:24.519Z,18.27
2019-06-20T22:59:28.551Z,17.20
2019-06-20T23:02:32.547Z,18.13
2019-06-20T23:05:36.359Z,15.77
2019-06-20T23:08:40.315Z,14.67
2019-06-20T23:11:44.108Z,18.10
2019-06-20T23:14:48.610Z,14.60
2019-06-20T23:17:52.322Z,12.73
2019-06-20T23:21:04.611Z,15.37
2019-06-20T23:24:02.078Z,16.30
2019-06-20T23:27:06.071Z,18.27
2019-06-20T23:30:11.819Z,14.50
2019-06-20T23:33:15.514Z,18.40
2019-06-20T23:36:19.206Z,13.47
2019-06-20T23:39:22.937Z,15.63
2019-06-20T23:42:26.959Z,12.90
2019-06-20T23:45:30.666Z,16.73
2019-06-20T23:48:34.377Z,14.63
2019-06-20T23:51:42.349Z,15.90
2019-06-20T23:54:46.422Z,14.13
2019-06-20T23:57:50.424Z,11.93
